Time;durP1;ratioP1;P1;durP2;ratioP2;P2;SDS_P1;SDS_P2;PMS_P1;PMS_P2;Temp;Humidity;BMP_temperature;BMP_pressure;BME280_temperature;BME280_humidity;BME280_pressure;Samples;Min_cycle;Max_cycle;Signal;HPM_P1;HPM_P2
2021/03/19 00:01:48;;;;;;;28.08;16.58;;;;;;;17.76;53.05;101835.66;5051402;28;20029;-64
2021/03/19 00:04:14;;;;;;;29.50;16.92;;;;;;;17.76;53.03;101841.09;5050195;28;20078;-63
2021/03/19 00:06:40;;;;;;;24.60;15.80;;;;;;;17.76;53.06;101841.09;5050178;28;20052;-64
2021/03/19 00:09:07;;;;;;;27.17;16.05;;;;;;;17.73;53.06;101836.91;5050219;28;20029;-63
2021/03/19 00:11:33;;;;;;;30.15;16.45;;;;;;;17.71;52.93;101839.78;5028473;28;20048;-63
2021/03/19 00:13:59;;;;;;;29.70;16.58;;;;;;;17.70;52.93;101845.44;5050098;28;20029;-63
2021/03/19 00:16:25;;;;;;;28.02;15.63;;;;;;;17.67;53.00;101841.22;5045543;28;20029;-64
2021/03/19 00:18:51;;;;;;;31.48;14.40;;;;;;;17.64;52.99;101838.94;5051064;28;20373;-64
2021/03/19 00:23:45;;;;;;;26.30;15.32;;;;;;;17.63;53.14;101833.72;5050961;28;20024;-64
2021/03/19 00:26:11;;;;;;;34.50;14.57;;;;;;;17.63;53.00;101836.41;5050394;28;20476;-64
2021/03/19 00:28:37;;;;;;;24.83;14.45;;;;;;;17.62;52.86;101841.00;5050368;28;20029;-64
2021/03/19 00:31:03;;;;;;;30.73;13.55;;;;;;;17.58;52.95;101828.88;5031125;28;20025;-64
2021/03/19 00:33:28;;;;;;;23.98;14.43;;;;;;;17.58;53.04;101833.47;5031321;28;20028;-64
2021/03/19 00:35:54;;;;;;;22.98;13.82;;;;;;;17.56;52.97;101830.09;5050546;28;20106;-64
2021/03/19 00:38:20;;;;;;;25.38;13.98;;;;;;;17.54;52.96;101833.00;5051253;28;20095;-64
2021/03/19 00:40:45;;;;;;;27.05;14.32;;;;;;;17.52;53.02;101826.97;5051379;28;20502;-64
2021/03/19 00:43:13;;;;;;;23.23;14.57;;;;;;;17.50;53.02;101829.00;5051477;28;20047;-64
2021/03/19 00:45:40;;;;;;;24.85;13.43;;;;;;;17.49;53.03;101827.34;5049919;28;20021;-65
2021/03/19 00:48:06;;;;;;;22.50;13.00;;;;;;;17.46;53.00;101825.03;5025880;28;20522;-64
2021/03/19 00:50:35;;;;;;;25.27;13.00;;;;;;;17.43;53.07;101825.44;5020332;28;20033;-64
2021/03/19 00:53:02;;;;;;;20.50;12.43;;;;;;;17.41;53.12;101819.38;5046782;28;20021;-64
2021/03/19 00:55:27;;;;;;;21.77;12.40;;;;;;;17.39;53.09;101813.28;5049416;28;20025;-65
2021/03/19 00:57:53;;;;;;;23.27;11.50;;;;;;;17.38;53.08;101820.59;5051234;28;20028;-64
2021/03/19 01:00:19;;;;;;;21.20;12.13;;;;;;;17.36;53.13;101813.72;5051271;28;20075;-64
2021/03/19 01:02:45;;;;;;;23.17;12.30;;;;;;;17.34;53.10;101810.34;5015588;28;20392;-64
2021/03/19 01:05:16;;;;;;;23.55;12.20;;;;;;;17.32;53.04;101817.84;5045612;28;20029;-64
2021/03/19 01:07:41;;;;;;;15.63;10.48;;;;;;;17.29;53.10;101819.09;5049359;28;20109;-64
2021/03/19 01:10:10;;;;;;;17.88;10.07;;;;;;;17.26;53.08;101813.22;5041564;28;20041;-64
2021/03/19 01:12:37;;;;;;;17.85;10.82;;;;;;;17.24;53.17;101815.31;5013800;28;20388;-64
2021/03/19 01:15:05;;;;;;;18.73;10.60;;;;;;;17.22;53.12;101822.78;5029721;28;20025;-64
2021/03/19 01:17:30;;;;;;;16.90;10.07;;;;;;;17.19;52.99;101816.72;5031826;28;20021;-64
2021/03/19 01:20:13;;;;;;;18.90;10.88;;;;;;;17.17;53.15;101821.53;5050581;28;20033;-64
2021/03/19 01:22:39;;;;;;;18.58;9.32;;;;;;;17.14;53.03;101821.91;5050480;28;20029;-64
2021/03/19 01:25:07;;;;;;;13.48;9.05;;;;;;;17.12;53.12;101818.56;5049296;28;20021;-64
2021/03/19 01:27:32;;;;;;;16.85;9.85;;;;;;;17.11;53.08;101819.56;5049017;28;20535;-64
2021/03/19 01:29:58;;;;;;;16.00;9.25;;;;;;;17.10;53.14;101817.06;5032838;28;20029;-64
2021/03/19 01:32:24;;;;;;;17.60;9.80;;;;;;;17.07;52.98;101807.47;5046328;28;20533;-64
2021/03/19 01:34:49;;;;;;;18.05;9.65;;;;;;;17.06;53.01;101819.38;5044262;28;20029;-64
2021/03/19 01:37:15;;;;;;;14.18;8.80;;;;;;;17.04;53.02;101810.56;5050238;28;20029;-64
2021/03/19 01:39:41;;;;;;;14.80;9.13;;;;;;;17.01;53.16;101816.41;5051137;28;20037;-64
2021/03/19 01:42:08;;;;;;;15.30;8.10;;;;;;;17.00;53.05;101817.41;5047076;28;20048;-64
2021/03/19 01:44:37;;;;;;;15.88;9.65;;;;;;;16.99;52.96;101813.03;5053147;28;20427;-64
2021/03/19 01:47:09;;;;;;;15.43;8.57;;;;;;;16.97;52.91;101806.97;5053690;28;20031;-64
2021/03/19 01:49:41;;;;;;;18.75;8.32;;;;;;;16.96;52.99;101807.19;5053192;28;20032;-63
2021/03/19 01:52:13;;;;;;;13.15;7.65;;;;;;;16.93;52.86;101809.22;5052532;28;20078;-64
2021/03/19 01:54:46;;;;;;;15.20;7.80;;;;;;;16.93;52.93;101821.94;5053985;28;20033;-64
2021/03/19 01:57:18;;;;;;;14.55;7.95;;;;;;;16.93;52.88;101816.53;5049131;28;20029;-64
2021/03/19 01:59:49;;;;;;;13.95;7.68;;;;;;;16.93;52.75;101808.38;5054109;28;20063;-64
2021/03/19 02:02:21;;;;;;;12.23;6.85;;;;;;;16.90;52.70;101819.66;5054402;28;20384;-64
2021/03/19 02:04:53;;;;;;;15.52;8.02;;;;;;;16.90;52.59;101819.66;5054478;28;20106;-64
2021/03/19 02:07:25;;;;;;;10.88;6.68;;;;;;;16.87;52.65;101810.00;5052781;28;20028;-64
2021/03/19 02:09:57;;;;;;;13.05;7.05;;;;;;;16.85;52.64;101819.41;5053922;28;20480;-64
2021/03/19 02:12:29;;;;;;;12.73;7.00;;;;;;;16.85;52.64;101819.41;5054025;28;20029;-65
2021/03/19 02:15:01;;;;;;;15.07;7.88;;;;;;;16.82;52.66;101822.47;5053756;28;20041;-64
2021/03/19 02:17:33;;;;;;;13.07;6.68;;;;;;;16.80;52.74;101828.13;5049038;28;20025;-64
2021/03/19 02:20:05;;;;;;;11.88;6.95;;;;;;;16.77;52.66;101825.78;5047025;28;20013;-64
2021/03/19 02:22:37;;;;;;;11.25;6.68;;;;;;;16.75;52.67;101827.84;5046340;28;20051;-64
2021/03/19 02:25:10;;;;;;;11.55;6.95;;;;;;;16.73;52.69;101826.41;5053490;28;20031;-64
2021/03/19 02:27:42;;;;;;;11.45;6.35;;;;;;;16.71;52.77;101820.31;5048630;28;20029;-64
2021/03/19 02:30:15;;;;;;;10.77;6.70;;;;;;;16.69;52.77;101825.06;5049095;28;20024;-64
2021/03/19 02:32:40;;;;;;;11.32;6.53;;;;;;;16.68;52.86;101829.66;5053212;28;20040;-64
2021/03/19 02:35:12;;;;;;;10.65;6.13;;;;;;;16.67;52.61;101830.69;5049245;28;20017;-64
2021/03/19 02:37:39;;;;;;;11.93;6.22;;;;;;;16.65;52.63;101811.03;5053439;28;20025;-64
2021/03/19 02:40:09;;;;;;;10.65;6.45;;;;;;;16.65;52.52;101814.59;5051762;28;20098;-64
2021/03/19 02:42:35;;;;;;;10.70;6.22;;;;;;;16.64;52.63;101821.06;5052500;28;20029;-64
2021/03/19 02:45:00;;;;;;;11.50;5.60;;;;;;;16.64;52.70;101823.75;5047726;28;20365;-64
2021/03/19 02:47:27;;;;;;;10.13;5.55;;;;;;;16.62;52.36;101815.00;5048511;28;20889;-64
2021/03/19 02:49:53;;;;;;;12.77;5.90;;;;;;;16.59;52.56;101812.66;5045169;28;20031;-64
2021/03/19 02:52:20;;;;;;;9.93;5.38;;;;;;;16.58;52.47;101821.84;5047093;28;20017;-63
2021/03/19 02:54:46;;;;;;;10.10;5.55;;;;;;;16.55;52.72;101819.50;5031987;28;20532;-64
2021/03/19 02:57:12;;;;;;;8.30;5.15;;;;;;;16.52;52.65;101811.78;5033170;28;20033;-64
2021/03/19 02:59:41;;;;;;;10.20;5.57;;;;;;;16.51;52.62;101810.09;5036328;28;20028;-64
2021/03/19 03:02:07;;;;;;;8.88;4.88;;;;;;;16.47;52.47;101807.97;5049913;28;20024;-64
2021/03/19 03:04:32;;;;;;;10.48;5.10;;;;;;;16.46;52.70;101809.84;5052950;28;20021;-64
2021/03/19 03:06:59;;;;;;;7.28;4.50;;;;;;;16.45;52.52;101821.72;5051700;28;20021;-64
2021/03/19 03:09:28;;;;;;;8.90;5.00;;;;;;;16.43;52.53;101812.09;5045677;28;20029;-64
2021/03/19 03:11:55;;;;;;;9.25;4.75;;;;;;;16.43;52.50;101814.78;5049338;28;20021;-64
2021/03/19 03:14:22;;;;;;;8.25;4.90;;;;;;;16.42;52.65;101813.13;5030609;28;20354;-64
2021/03/19 03:16:48;;;;;;;7.68;4.30;;;;;;;16.38;52.48;101815.38;5034603;28;20177;-64
2021/03/19 03:19:17;;;;;;;7.55;4.22;;;;;;;16.37;52.59;101814.53;5047778;28;20348;-63
2021/03/19 03:21:43;;;;;;;8.05;4.70;;;;;;;16.36;52.59;101812.03;5045992;28;20038;-64
2021/03/19 03:24:10;;;;;;;7.70;4.45;;;;;;;16.35;52.51;101813.06;5052587;28;20590;-64
2021/03/19 03:26:36;;;;;;;9.38;4.95;;;;;;;16.34;52.71;101814.09;5030797;28;20028;-64
2021/03/19 03:29:02;;;;;;;8.85;4.38;;;;;;;16.33;52.54;101820.53;5049369;28;20476;-64
2021/03/19 03:31:28;;;;;;;10.23;4.55;;;;;;;16.32;52.69;101810.72;5046611;28;20036;-64
2021/03/19 03:33:54;;;;;;;7.90;4.03;;;;;;;16.31;52.69;101811.75;5051906;28;20427;-64
2021/03/19 03:36:19;;;;;;;7.20;3.70;;;;;;;16.29;52.61;101808.41;5051040;28;20036;-64
2021/03/19 03:38:45;;;;;;;7.15;3.88;;;;;;;16.28;52.57;101809.44;5049224;28;20048;-64
2021/03/19 03:41:15;;;;;;;8.80;4.65;;;;;;;16.27;52.59;101815.88;5051728;28;20044;-64
2021/03/19 03:43:41;;;;;;;9.60;4.07;;;;;;;16.24;52.46;101813.56;5045183;28;20025;-64
2021/03/19 03:46:11;;;;;;;7.65;4.45;;;;;;;16.23;52.60;101809.19;5046783;28;20029;-63
2021/03/19 03:48:37;;;;;;;8.13;4.65;;;;;;;16.21;52.45;101811.22;5034186;28;20471;-63
2021/03/19 03:51:03;;;;;;;7.32;4.22;;;;;;;16.20;52.60;101809.56;5050763;28;20035;-64
2021/03/19 03:53:29;;;;;;;8.10;4.07;;;;;;;16.17;52.66;101810.78;5050599;28;20064;-64
2021/03/19 03:55:54;;;;;;;9.13;3.65;;;;;;;16.15;52.52;101810.13;5048228;28;20068;-64
2021/03/19 03:58:20;;;;;;;8.07;4.55;;;;;;;16.14;52.62;101803.03;5046713;28;20037;-64
2021/03/19 04:00:46;;;;;;;8.15;3.97;;;;;;;16.12;52.66;101807.81;5029389;28;20021;-64
2021/03/19 04:03:11;;;;;;;6.32;3.55;;;;;;;16.10;52.64;101807.97;5033799;28;20376;-64
2021/03/19 04:05:39;;;;;;;6.93;3.80;;;;;;;16.10;52.65;101807.97;5045316;28;20017;-64
2021/03/19 04:08:05;;;;;;;5.70;3.42;;;;;;;16.10;52.54;101804.44;5050304;28;20029;-63
2021/03/19 04:10:31;;;;;;;5.15;3.45;;;;;;;16.10;52.62;101812.56;5044316;28;20379;-64
2021/03/19 04:12:57;;;;;;;5.78;3.10;;;;;;;16.09;52.49;101816.31;5029320;28;20060;-63
2021/03/19 04:15:23;;;;;;;7.93;3.38;;;;;;;16.07;52.50;101813.81;5046407;28;20032;-64
2021/03/19 04:17:54;;;;;;;6.55;3.30;;;;;;;16.06;52.55;101820.25;5044890;28;20025;-64
2021/03/19 04:20:20;;;;;;;4.65;2.53;;;;;;;16.02;52.56;101820.81;5050970;28;20032;-63
2021/03/19 04:22:47;;;;;;;5.03;3.00;;;;;;;16.00;52.41;101823.72;5051098;28;20032;-64
2021/03/19 04:25:16;;;;;;;6.63;3.67;;;;;;;15.98;52.62;101825.78;5051257;28;20017;-64
2021/03/19 04:27:47;;;;;;;5.05;3.20;;;;;;;15.97;52.52;101825.97;5050886;28;20021;-64
2021/03/19 04:30:19;;;;;;;5.72;3.15;;;;;;;15.96;52.65;101824.28;5047088;28;20475;-64
2021/03/19 04:32:44;;;;;;;5.88;3.42;;;;;;;15.94;52.54;101823.63;5050125;28;20044;-64
2021/03/19 04:35:11;;;;;;;6.10;3.60;;;;;;;15.94;52.59;101831.75;5051186;28;20029;-63
2021/03/19 04:37:36;;;;;;;8.65;3.85;;;;;;;15.91;52.42;101834.84;5051292;28;20027;-64
2021/03/19 04:40:03;;;;;;;6.95;3.33;;;;;;;15.88;52.55;101836.06;5047721;28;20415;-64
2021/03/19 04:42:28;;;;;;;4.55;2.88;;;;;;;15.88;52.58;101836.06;5044800;28;20021;-64
2021/03/19 04:44:54;;;;;;;4.18;2.72;;;;;;;15.86;52.58;101846.25;5050991;28;20031;-64
2021/03/19 04:47:20;;;;;;;5.72;2.67;;;;;;;15.85;52.65;101858.13;5045333;28;20656;-63
2021/03/19 04:49:45;;;;;;;6.28;3.70;;;;;;;15.85;52.62;101860.81;5046470;28;20025;-64
2021/03/19 04:52:11;;;;;;;6.85;3.00;;;;;;;15.83;52.52;101860.19;5050886;28;20031;-64
2021/03/19 04:54:37;;;;;;;5.57;3.13;;;;;;;15.82;52.53;101842.25;5046595;28;20431;-63
2021/03/19 04:57:02;;;;;;;7.88;3.22;;;;;;;15.80;52.50;101850.56;5041021;28;20407;-64
2021/03/19 04:59:28;;;;;;;5.75;2.78;;;;;;;15.80;52.62;101847.00;5030010;28;20025;-64
2021/03/19 05:01:56;;;;;;;5.10;3.20;;;;;;;15.79;52.42;101853.47;5042799;28;20021;-63
2021/03/19 05:04:23;;;;;;;5.28;2.95;;;;;;;15.77;52.48;101855.50;5030607;28;20013;-63
2021/03/19 05:06:50;;;;;;;4.18;2.55;;;;;;;15.75;52.46;101861.09;5033081;28;20287;-64
2021/03/19 05:09:17;;;;;;;5.43;2.65;;;;;;;15.74;52.52;101858.59;5044848;28;20021;-63
2021/03/19 05:11:44;;;;;;;5.25;2.28;;;;;;;15.72;52.42;101853.38;5045635;28;20442;-63
2021/03/19 05:14:10;;;;;;;4.28;2.42;;;;;;;15.70;52.47;101854.56;5053341;28;20025;-63
2021/03/19 05:16:36;;;;;;;5.30;2.45;;;;;;;15.69;52.37;101855.59;5053788;28;20025;-63
2021/03/19 05:19:02;;;;;;;5.95;2.85;;;;;;;15.67;52.31;101855.81;5050324;28;20376;-64
2021/03/19 05:21:29;;;;;;;4.90;2.63;;;;;;;15.66;52.30;101856.84;5053579;28;20025;-63
2021/03/19 05:23:55;;;;;;;5.88;2.72;;;;;;;15.64;52.54;101856.16;5055179;28;20033;-64
2021/03/19 05:26:21;;;;;;;3.10;1.88;;;;;;;15.62;52.41;101852.78;5054700;28;20032;-63
2021/03/19 05:28:48;;;;;;;4.20;2.53;;;;;;;15.61;52.68;101859.22;5049813;28;20029;-63
2021/03/19 05:31:14;;;;;;;4.35;2.42;;;;;;;15.59;52.40;101853.97;5049103;28;20040;-63
2021/03/19 05:33:43;;;;;;;4.82;2.72;;;;;;;15.58;52.60;101860.44;5054595;28;20419;-63
2021/03/19 05:36:09;;;;;;;3.85;2.45;;;;;;;15.58;52.59;101865.00;5054784;28;20064;-64
2021/03/19 05:38:35;;;;;;;3.67;2.08;;;;;;;15.56;52.54;101865.19;5054508;28;20080;-63
2021/03/19 05:41:01;;;;;;;3.08;2.47;;;;;;;15.55;52.59;101862.69;5054454;28;20389;-63
2021/03/19 05:43:32;;;;;;;4.55;2.47;;;;;;;15.53;52.57;101868.28;5048895;28;20025;-63
2021/03/19 05:45:59;;;;;;;3.50;2.08;;;;;;;15.53;52.75;101879.09;5048288;28;20172;-64
2021/03/19 05:48:26;;;;;;;5.05;2.33;;;;;;;15.52;52.54;101876.59;5053639;28;20430;-64
2021/03/19 05:50:52;;;;;;;3.10;2.28;;;;;;;15.51;52.45;101883.03;5053308;28;20036;-64
2021/03/19 05:53:22;;;;;;;3.42;2.30;;;;;;;15.49;52.66;101894.06;5049969;28;20504;-64
2021/03/19 05:55:48;;;;;;;4.00;2.17;;;;;;;15.48;52.42;101895.06;5035832;28;20025;-63
2021/03/19 05:58:21;;;;;;;3.28;2.08;;;;;;;15.46;52.47;101894.41;5049485;28;20033;-63
2021/03/19 06:00:47;;;;;;;4.68;2.05;;;;;;;15.45;52.53;101900.84;5053997;28;20117;-64
2021/03/19 06:03:13;;;;;;;4.47;1.70;;;;;;;15.45;52.50;101905.44;5049635;28;20483;-63
2021/03/19 06:05:46;;;;;;;3.65;2.20;;;;;;;15.43;52.37;101908.31;5054014;28;20377;-63
2021/03/19 06:08:11;;;;;;;4.05;2.05;;;;;;;15.41;52.57;101915.75;5049940;28;20029;-64
2021/03/19 06:10:39;;;;;;;3.50;1.77;;;;;;;15.40;52.53;101914.09;5053567;28;20460;-64
2021/03/19 06:13:09;;;;;;;3.00;1.88;;;;;;;15.38;52.34;101920.72;5053001;28;20025;-64
2021/03/19 06:15:37;;;;;;;3.58;2.22;;;;;;;15.36;52.54;101920.88;5054055;28;20029;-63
2021/03/19 06:18:05;;;;;;;4.22;2.20;;;;;;;15.35;52.31;101925.47;5052819;28;20636;-64
2021/03/19 06:20:31;;;;;;;3.22;1.90;;;;;;;15.35;52.54;101928.16;5036343;28;20025;-64
2021/03/19 06:23:01;;;;;;;3.88;1.90;;;;;;;15.33;52.46;101924.81;5052123;28;20456;-63
2021/03/19 06:25:32;;;;;;;4.70;2.03;;;;;;;15.33;52.32;101938.34;5053553;28;20025;-64
2021/03/19 06:27:58;;;;;;;;;;;;;;;15.34;52.22;101936.47;5054360;28;20021;-64
2021/03/19 06:30:27;;;;;;;4.22;1.98;;;;;;;15.31;52.52;101934.13;5052976;28;19917;-63
2021/03/19 06:32:59;;;;;;;3.08;1.65;;;;;;;15.30;52.56;101940.56;5052683;28;20060;-64
2021/03/19 06:35:31;;;;;;;3.58;1.73;;;;;;;15.28;52.57;101948.88;5053457;28;20550;-64
2021/03/19 06:37:57;;;;;;;3.00;1.98;;;;;;;15.28;52.50;101948.03;5053427;28;20070;-63
2021/03/19 06:40:26;;;;;;;3.53;1.83;;;;;;;15.26;52.50;101937.41;5048284;28;20053;-64
2021/03/19 06:43:04;;;;;;;3.58;1.85;;;;;;;15.25;52.74;101943.81;5048489;28;20025;-63
2021/03/19 06:45:30;;;;;;;3.80;1.80;;;;;;;15.24;52.29;101941.28;5052830;28;20035;-63
2021/03/19 06:47:57;;;;;;;2.95;1.80;;;;;;;15.23;52.69;101945.88;5048553;28;20037;-64
2021/03/19 06:50:23;;;;;;;2.17;1.50;;;;;;;15.22;52.42;101956.88;5030252;28;20033;-64
2021/03/19 06:52:50;;;;;;;3.22;1.92;;;;;;;15.24;52.55;101957.53;5052435;28;20515;-64
2021/03/19 06:55:21;;;;;;;3.42;1.75;;;;;;;15.29;52.43;101949.72;5051998;28;20025;-64
2021/03/19 06:57:48;;;;;;;3.63;1.85;;;;;;;15.36;52.85;101953.34;5053315;28;20032;-64
2021/03/19 07:00:32;;;;;;;2.30;1.70;;;;;;;15.42;52.96;101960.75;5047125;28;20032;-63
2021/03/19 07:02:59;;;;;;;3.28;1.92;;;;;;;15.48;52.63;101965.41;5051029;28;20036;-64
2021/03/19 07:05:31;;;;;;;1.75;1.10;;;;;;;15.56;52.39;101970.78;5052990;28;20029;-64
2021/03/19 07:08:05;;;;;;;2.55;1.50;;;;;;;15.65;52.18;101970.72;5051501;28;20021;-64
2021/03/19 07:10:35;;;;;;;2.13;1.33;;;;;;;15.74;52.12;101975.88;5032138;28;20028;-63
2021/03/19 07:13:07;;;;;;;1.50;1.20;;;;;;;15.86;51.83;101978.97;5036253;28;20404;-64
2021/03/19 07:15:41;;;;;;;2.05;1.30;;;;;;;15.97;51.65;101983.91;5036031;28;20503;-64
2021/03/19 07:18:09;;;;;;;2.60;1.58;;;;;;;16.10;51.40;101983.25;5051051;28;20028;-64
2021/03/19 07:20:39;;;;;;;2.15;1.20;;;;;;;16.22;51.28;101972.78;5052993;28;20036;-64
2021/03/19 07:23:11;;;;;;;2.35;1.33;;;;;;;16.34;51.20;101984.84;5052486;28;20029;-64
2021/03/19 07:25:42;;;;;;;2.42;1.40;;;;;;;16.47;50.80;101982.28;5052414;28;20484;-64
2021/03/19 07:28:11;;;;;;;1.90;1.45;;;;;;;16.58;50.74;101989.09;5052829;28;20029;-64
2021/03/19 07:30:42;;;;;;;1.65;1.15;;;;;;;16.68;50.50;101978.81;5047531;28;20087;-63
2021/03/19 07:33:11;;;;;;;2.13;1.35;;;;;;;16.78;50.40;101983.94;5051303;28;20075;-63
2021/03/19 07:35:43;;;;;;;1.55;1.13;;;;;;;16.89;50.16;101980.72;5047793;28;20031;-64
2021/03/19 07:38:15;;;;;;;1.77;1.38;;;;;;;16.99;50.11;101978.53;5051807;28;20383;-63
2021/03/19 07:40:47;;;;;;;1.80;1.20;;;;;;;17.09;49.89;101981.75;5052198;28;20147;-64
2021/03/19 07:43:19;;;;;;;2.17;1.38;;;;;;;17.20;49.73;101980.41;5052081;28;20029;-64
2021/03/19 07:45:48;;;;;;;3.05;1.73;;;;;;;17.29;49.55;101979.25;5047525;28;20066;-64
2021/03/19 07:48:17;;;;;;;1.85;1.13;;;;;;;17.40;49.42;101980.59;5051736;28;20035;-64
2021/03/19 07:50:47;;;;;;;1.70;1.30;;;;;;;17.48;49.25;101980.44;5046735;28;20146;-64
2021/03/19 07:53:19;;;;;;;2.40;1.30;;;;;;;17.56;49.20;101977.56;5051910;28;20021;-65
2021/03/19 07:55:51;;;;;;;2.03;1.20;;;;;;;17.64;49.10;101974.72;5031713;28;20052;-64
2021/03/19 07:58:24;;;;;;;1.55;0.90;;;;;;;17.73;49.02;101978.16;5033137;28;20021;-64
2021/03/19 08:00:57;;;;;;;2.03;1.45;;;;;;;17.82;48.91;101973.41;5051793;28;20429;-64
2021/03/19 08:03:24;;;;;;;1.85;1.20;;;;;;;17.88;48.84;101968.00;5042652;28;20036;-65
2021/03/19 08:05:51;;;;;;;1.65;1.20;;;;;;;17.97;48.74;101974.16;5050695;28;20380;-64
2021/03/19 08:08:24;;;;;;;2.50;0.90;;;;;;;18.03;48.59;101967.91;5029792;28;20041;-65
2021/03/19 08:10:56;;;;;;;1.60;0.82;;;;;;;18.10;48.62;101976.09;5051411;28;20112;-65
2021/03/19 08:13:25;;;;;;;1.63;1.08;;;;;;;18.17;48.47;101983.22;5051765;28;20036;-64
2021/03/19 08:15:53;;;;;;;2.05;0.82;;;;;;;18.23;48.23;101979.69;5046571;28;20021;-64
2021/03/19 08:18:25;;;;;;;2.33;1.10;;;;;;;18.28;48.32;101978.25;5051640;28;20363;-64
2021/03/19 08:20:57;;;;;;;1.88;1.00;;;;;;;18.31;48.17;101981.44;5046544;28;20108;-64
2021/03/19 08:23:29;;;;;;;1.88;1.23;;;;;;;18.35;48.11;101984.56;5050927;28;20464;-64
2021/03/19 08:25:55;;;;;;;1.35;0.85;;;;;;;18.36;48.05;101981.66;5051531;28;20040;-65
2021/03/19 08:28:27;;;;;;;1.58;0.88;;;;;;;18.37;47.99;101990.66;5046829;28;20108;-64
2021/03/19 08:30:59;;;;;;;1.85;1.40;;;;;;;18.39;48.20;101991.28;5050837;28;20064;-66
2021/03/19 08:33:32;;;;;;;2.20;1.33;;;;;;;18.43;48.54;101996.13;5051719;28;20029;-67
2021/03/19 08:36:03;;;;;;;2.83;1.00;;;;;;;18.45;48.78;101998.63;5051299;28;20055;-69
2021/03/19 08:38:28;;;;;;;;;;;;;;;18.47;49.05;102007.44;5052014;28;20506;-71
2021/03/19 08:40:58;;;;;;;1.45;1.02;;;;;;;18.47;49.03;102002.00;5051586;28;19963;-68
2021/03/19 08:43:28;;;;;;;1.92;1.00;;;;;;;18.49;49.32;102000.75;5046954;28;20282;-68
2021/03/19 08:45:59;;;;;;;1.52;0.80;;;;;;;18.51;49.47;101998.66;5049386;28;20024;-67
2021/03/19 08:48:24;;;;;;;1.52;0.90;;;;;;;18.53;49.48;102006.63;5048739;28;20033;-66
2021/03/19 08:50:50;;;;;;;1.58;0.88;;;;;;;18.54;49.25;102002.03;5047788;28;20025;-70
2021/03/19 08:53:19;;;;;;;0.90;0.70;;;;;;;18.52;49.48;102007.69;5045039;28;20021;-68
2021/03/19 08:55:49;;;;;;;1.98;1.20;;;;;;;18.51;49.61;102009.53;5048606;28;20491;-68
2021/03/19 08:58:21;;;;;;;1.63;0.82;;;;;;;18.52;49.60;102010.41;5045001;28;20047;-66
2021/03/19 09:00:49;;;;;;;1.27;0.70;;;;;;;18.50;49.62;102007.03;5050705;28;20033;-66
2021/03/19 09:03:21;;;;;;;0.98;0.88;;;;;;;18.47;49.30;102016.44;5030039;28;20022;-65
2021/03/19 09:05:53;;;;;;;1.45;0.82;;;;;;;18.44;49.31;102019.56;5031207;28;20033;-68
2021/03/19 09:08:24;;;;;;;2.92;1.08;;;;;;;18.43;49.60;102023.31;5031079;28;20049;-70
2021/03/19 09:10:53;;;;;;;1.70;0.77;;;;;;;18.44;49.65;102040.47;5020556;28;20396;-63
2021/03/19 09:13:20;;;;;;;1.95;1.20;;;;;;;18.39;49.62;102032.06;5050663;28;20021;-68
2021/03/19 09:15:47;;;;;;;1.50;1.00;;;;;;;18.36;49.57;102033.34;5032839;28;20029;-68
2021/03/19 09:18:19;;;;;;;1.77;0.98;;;;;;;18.33;49.78;102030.16;5049955;28;20179;-68
2021/03/19 09:20:56;;;;;;;1.35;0.75;;;;;;;18.29;49.71;102037.03;5051198;28;20358;-63
2021/03/19 09:23:23;;;;;;;1.60;0.90;;;;;;;18.26;49.64;102042.88;5050635;28;20495;-63
2021/03/19 09:25:55;;;;;;;0.80;0.75;;;;;;;18.23;49.56;102039.50;5032706;28;20460;-63
2021/03/19 09:28:25;;;;;;;0.90;0.77;;;;;;;18.20;49.63;102039.94;5051078;28;20044;-69
2021/03/19 09:30:57;;;;;;;2.33;0.90;;;;;;;18.17;49.63;102044.91;5031658;28;20391;-63
2021/03/19 09:33:29;;;;;;;1.50;0.80;;;;;;;18.15;49.71;102041.56;5030965;28;20025;-63
2021/03/19 09:35:55;;;;;;;1.95;0.80;;;;;;;18.13;49.72;102041.78;5031052;28;20029;-63
2021/03/19 09:38:24;;;;;;;1.05;0.75;;;;;;;18.12;49.78;102042.78;5030515;28;20480;-68
2021/03/19 09:40:52;;;;;;;1.38;0.77;;;;;;;18.13;49.79;102039.06;5043533;28;20425;-68
2021/03/19 09:43:24;;;;;;;1.13;0.80;;;;;;;18.13;49.88;102040.94;5049688;28;20013;-63
2021/03/19 09:46:01;;;;;;;0.77;0.57;;;;;;;18.12;49.88;102048.22;5050288;28;20087;-63
2021/03/19 09:48:27;;;;;;;2.15;0.85;;;;;;;18.11;49.91;102043.84;5033627;28;20067;-69
2021/03/19 09:50:58;;;;;;;0.73;0.60;;;;;;;18.10;50.05;102049.47;5032767;28;20052;-63
2021/03/19 09:53:27;;;;;;;4.60;1.10;;;;;;;18.07;49.96;102050.72;5033733;28;20643;-68
2021/03/19 09:55:55;;;;;;;1.67;0.85;;;;;;;18.06;50.23;102059.91;5033004;28;20025;-68
2021/03/19 09:58:25;;;;;;;1.73;0.93;;;;;;;18.05;50.81;102058.22;5050410;28;20090;-68
2021/03/19 10:00:53;;;;;;;1.23;0.65;;;;;;;18.04;50.88;102051.13;5054252;28;20029;-68
2021/03/19 10:03:19;;;;;;;0.90;0.80;;;;;;;18.03;50.65;102054.03;5054406;28;20025;-68
2021/03/19 10:05:46;;;;;;;5.55;1.00;;;;;;;18.01;50.74;102062.38;5052956;28;20471;-69
2021/03/19 10:08:26;;;;;;;2.65;0.70;;;;;;;17.97;50.65;102067.38;5033691;28;20029;-68
2021/03/19 10:10:59;;;;;;;3.83;0.90;;;;;;;17.97;50.58;102066.53;5034498;28;20033;-63
2021/03/19 10:13:25;;;;;;;0.57;0.57;;;;;;;17.94;50.52;102069.63;5034027;28;20360;-63
2021/03/19 10:15:53;;;;;;;1.52;0.60;;;;;;;17.92;50.55;102069.84;5032141;28;20035;-67
2021/03/19 10:18:30;;;;;;;1.33;0.93;;;;;;;17.89;50.54;102070.22;5053506;28;20021;-68
2021/03/19 10:21:00;;;;;;;1.60;0.80;;;;;;;17.87;50.50;102074.19;5053816;28;20033;-68
2021/03/19 10:23:31;;;;;;;0.63;0.63;;;;;;;17.84;50.60;102078.13;5050356;28;20050;-63
2021/03/19 10:26:03;;;;;;;1.23;0.70;;;;;;;17.82;50.50;102082.91;5049359;28;20489;-69
2021/03/19 10:28:29;;;;;;;0.98;0.73;;;;;;;17.80;50.46;102082.28;5052307;28;20017;-68
2021/03/19 10:30:57;;;;;;;2.30;0.70;;;;;;;17.77;50.34;102084.53;5052048;28;20035;-68
2021/03/19 10:33:30;;;;;;;1.35;1.25;;;;;;;17.76;50.65;102080.16;5051832;28;20025;-63
2021/03/19 10:36:00;;;;;;;4.95;1.75;;;;;;;17.74;50.45;102079.53;5051951;28;20098;-68
2021/03/19 10:38:32;;;;;;;1.95;1.00;;;;;;;17.71;50.45;102084.25;5052917;28;20064;-69
2021/03/19 10:41:01;;;;;;;4.22;1.00;;;;;;;17.69;50.49;102086.34;5052358;28;20114;-63
2021/03/19 10:43:33;;;;;;;1.87;1.27;;;;;;;17.68;50.54;102091.97;5031942;28;20037;-68
2021/03/19 10:46:06;;;;;;;2.60;0.98;;;;;;;17.66;50.51;102092.16;5030199;28;20026;-68
2021/03/19 10:48:38;;;;;;;4.50;1.15;;;;;;;17.64;50.27;102087.97;5050104;28;20033;-68
2021/03/19 10:51:07;;;;;;;1.08;0.73;;;;;;;17.62;50.28;102088.16;5049470;28;20027;-68
2021/03/19 10:53:36;;;;;;;2.65;1.23;;;;;;;17.59;50.28;102091.25;5052727;28;20472;-64
2021/03/19 10:56:02;;;;;;;4.05;1.10;;;;;;;17.59;50.23;102085.81;5051381;28;20383;-65
2021/03/19 10:58:33;;;;;;;1.83;1.08;;;;;;;17.57;50.27;102082.47;5048223;28;20598;-68
2021/03/19 11:00:59;;;;;;;0.98;0.80;;;;;;;17.56;50.28;102090.78;5043880;28;20089;-63
2021/03/19 11:03:31;;;;;;;1.77;1.10;;;;;;;17.55;50.37;102079.09;5031716;28;20018;-68
2021/03/19 11:05:58;;;;;;;3.25;1.25;;;;;;;17.55;50.22;102078.25;5028782;28;20028;-68
2021/03/19 11:08:24;;;;;;;1.75;0.70;;;;;;;17.54;50.29;102077.41;5029126;28;20227;-63
2021/03/19 11:10:53;;;;;;;2.50;1.10;;;;;;;17.54;50.27;102072.00;5037648;28;20071;-68
2021/03/19 11:13:24;;;;;;;2.20;0.90;;;;;;;17.53;50.49;102078.47;5031528;28;20025;-63
2021/03/19 11:15:50;;;;;;;1.67;1.00;;;;;;;17.54;50.48;102072.00;5047718;28;20032;-64
2021/03/19 11:18:19;;;;;;;1.45;0.90;;;;;;;17.53;50.46;102083.88;5044686;28;20018;-68
2021/03/19 11:20:47;;;;;;;3.45;1.00;;;;;;;17.53;50.40;102078.47;5052177;28;20017;-68
2021/03/19 11:23:18;;;;;;;5.70;0.95;;;;;;;17.52;50.47;102075.94;5049309;28;20103;-63
2021/03/19 11:25:46;;;;;;;1.35;0.90;;;;;;;17.51;50.41;102071.53;5047369;28;20060;-68
2021/03/19 11:28:21;;;;;;;1.40;0.70;;;;;;;17.49;50.42;102077.16;5051025;28;20475;-63
2021/03/19 11:30:47;;;;;;;1.33;0.85;;;;;;;17.48;50.35;102078.19;5049009;28;20029;-64